Terminal Aerodrome Forecast
Issued by NWS

Home | Current Version | Previous Version | Text Only | Print | Product List | Glossary On
Versions: 1 2 3 4 5 6 7 8 9 10 11 12 13 14 15 16 17 18 19
000
FTUS43 KICT 041131
TAFRSL
TAF
KRSL 041131Z 0412/0512 16011KT P6SM FEW080 SCT200
     FM042000 17015G22KT P6SM FEW080 BKN200
     FM050100 15010KT P6SM BKN080
     FM050700 16012KT P6SM VCTS BKN050CB=

USA.gov is the U.S. government's official web portal to all federal, state and local government web resources and services.